Altamont, SD

3:15 AM CDT on August 21, 2014 (GMT -0500)
Canby | Change Station
CLOSE
Current Station
Airport
Location: Canby,
Elevation: 1194 ft
Nearby Weather Stations

Elev 1194 ft 44.73 °N, 96.26 °W | Updated 21 minutes ago

Mostly Cloudy
Mostly Cloudy
70 °F
Feels Like 70 °F
N
5
Wind Variable Wind from East

Today
High -- | Low -- °F
--% Chance of Precip.
Yesterday
High -- | Low -- °F
Precip. -- in
6:36 AM 8:22 PM
Waning Crescent, 16% visible
Pressure 29.71 in
Visibility 10.0 miles
Clouds Scattered Clouds 6000 ft
Scattered Clouds 7500 ft
Mostly Cloudy 10000 ft
Dew Point 68 °F
Humidity 95%
Rainfall 0.19 in
Snow Depth Not available.
UV 0 out of 12
Pollen 9.90 out of 12
Air Quality Not available.
Flu Activity Not available.
METAR KCNB 210754Z AUTO 09004KT 10SM SCT060 SCT075 BKN100 21/20 A2971 RMK AO2 LTG DSNT N THRU E T02100202

More Conditions Fewer Conditions

Pressure 29.71 in
Visibility 10.0 miles
Clouds Scattered Clouds 6000 ft
Scattered Clouds 7500 ft
Mostly Cloudy 10000 ft
Dew Point 68 °F
Humidity 95%
Rainfall 0.19 in
Snow Depth Not available.
UV 0 out of 12
Pollen 9.90 out of 12
Air Quality Not available.
Flu Activity Not available.
METAR KCNB 210754Z AUTO 09004KT 10SM SCT060 SCT075 BKN100 21/20 A2971 RMK AO2 LTG DSNT N THRU E T02100202

More Conditions Fewer Conditions

10-Day Weather Forecast

Almanac

Astronomy

Aug. 21, 2014 Rise Set
Actual Time 6:36 AM CDT 8:22 PM CDT
Civil Twilight 6:04 AM CDT 8:53 PM CDT
Nautical Twilight 5:26 AM CDT 9:31 PM CDT
Astronomical Twilight 4:45 AM CDT 10:12 PM CDT
Moon 3:03 AM CDT 5:55 PM CDT
Length of Visible Light 14h 48m
Length of Day
13h 46m
Tomorrow will be 2m 52s shorter.
Waning Crescent, 16% of the Moon is Illuminated
Today
Waning Crescent
Aug 25
New
Sep 2
First Quarter
Sep 8
Full
Sep 15
Last Quarter

Today's Extremes

State Highs State Lows

Community

WunderPhotos

Upload Photos

1,745,867 photos uploaded!

Nearby

Snow Depth

Station Depth Elevation
Blind Park 0 in 6890 ft

Earthquake Activity

City Distance Mag. Time & Date
No recent earthquake activity has been reported nearby.
Minimum magnitude displayed is 2.5.

Coastal Water Temperatures

Place Temperature
No Stations Reporting

Nearby Weather Stations